National Weather Service United States Department of Commerce
News Headlines
Click Here for Latest Airport Weather Warnings
 
Latest Huntsville TAF


000
FTUS44 KHUN 180520
TAFHSV
TAF
KHSV 180520Z 1806/1906 10005KT 6SM BR OVC006
TEMPO 1806/1808 4SM -DZ BR BKN004 OVC008
FM180900 VRB04KT 3SM BR OVC004
FM181400 10003KT 4SM BR OVC006
FM181900 12005KT P6SM BKN007 OVC015
FM190000 12004KT P6SM OVC020=

Latest Muscle Shoals TAF


000
FTUS44 KHUN 180637 AAA
TAFMSL
TAF AMD
KMSL 180637Z 1807/1906 VRB03KT 3SM BR OVC004
TEMPO 1807/1809 1SM -DZ BR OVC002
FM181000 VRB04KT 2SM BR OVC003
FM181400 10003KT 4SM BR OVC005
FM181900 13005KT P6SM BKN007 OVC015
FM190000 12004KT P6SM OVC020=


Back to Main Huntsville Weather Forecast Office Page